sensor_id;sensor_type;location;lat;lon;timestamp;pressure;altitude;pressure_sealevel;temperature;humidity
11268;BME280;72685;47.474;9.416;2024-01-15T00:02:12;94425.09;;;2.44;100.00
11268;BME280;72685;47.474;9.416;2024-01-15T00:04:38;94426.13;;;2.48;100.00
11268;BME280;72685;47.474;9.416;2024-01-15T00:07:08;94418.94;;;2.54;100.00
11268;BME280;72685;47.474;9.416;2024-01-15T00:09:33;94414.59;;;2.63;100.00
11268;BME280;72685;47.474;9.416;2024-01-15T00:11:59;94406.69;;;2.63;100.00
11268;BME280;72685;47.474;9.416;2024-01-15T00:14:25;94410.53;;;2.52;100.00
11268;BME280;72685;47.474;9.416;2024-01-15T00:16:50;94404.25;;;2.48;100.00
11268;BME280;72685;47.474;9.416;2024-01-15T00:19:19;94407.13;;;2.46;100.00
11268;BME280;72685;47.474;9.416;2024-01-15T00:21:44;94414.25;;;2.46;100.00
11268;BME280;72685;47.474;9.416;2024-01-15T00:24:10;94413.03;;;2.62;100.00
11268;BME280;72685;47.474;9.416;2024-01-15T00:26:36;94404.47;;;2.51;100.00
11268;BME280;72685;47.474;9.416;2024-01-15T00:29:02;94406.34;;;2.70;100.00
11268;BME280;72685;47.474;9.416;2024-01-15T00:31:28;94407.63;;;2.72;99.57
11268;BME280;72685;47.474;9.416;2024-01-15T00:33:55;94408.09;;;2.79;99.32
11268;BME280;72685;47.474;9.416;2024-01-15T00:36:20;94401.19;;;2.83;99.04
11268;BME280;72685;47.474;9.416;2024-01-15T00:38:45;94405.22;;;2.76;99.43
11268;BME280;72685;47.474;9.416;2024-01-15T00:41:13;94409.66;;;2.80;97.19
11268;BME280;72685;47.474;9.416;2024-01-15T00:43:38;94418.13;;;2.77;97.64
11268;BME280;72685;47.474;9.416;2024-01-15T00:46:04;94421.84;;;2.76;97.42
11268;BME280;72685;47.474;9.416;2024-01-15T00:48:29;94410.59;;;2.65;98.43
11268;BME280;72685;47.474;9.416;2024-01-15T00:50:55;94409.22;;;2.73;97.53
11268;BME280;72685;47.474;9.416;2024-01-15T00:53:20;94402.66;;;2.71;96.95
11268;BME280;72685;47.474;9.416;2024-01-15T00:55:48;94398.03;;;2.81;95.95
11268;BME280;72685;47.474;9.416;2024-01-15T00:58:13;94399.78;;;2.67;96.04
11268;BME280;72685;47.474;9.416;2024-01-15T01:00:39;94409.25;;;2.68;95.67
11268;BME280;72685;47.474;9.416;2024-01-15T01:03:04;94407.66;;;2.91;92.51
11268;BME280;72685;47.474;9.416;2024-01-15T01:05:29;94411.72;;;2.83;93.23
11268;BME280;72685;47.474;9.416;2024-01-15T01:07:55;94409.66;;;2.80;93.66
11268;BME280;72685;47.474;9.416;2024-01-15T01:10:20;94414.19;;;2.75;94.12
11268;BME280;72685;47.474;9.416;2024-01-15T01:12:46;94414.25;;;2.70;94.14
11268;BME280;72685;47.474;9.416;2024-01-15T01:15:11;94418.38;;;2.81;93.17
11268;BME280;72685;47.474;9.416;2024-01-15T01:17:36;94425.81;;;2.74;93.79
11268;BME280;72685;47.474;9.416;2024-01-15T01:20:02;94413.63;;;2.78;92.62
11268;BME280;72685;47.474;9.416;2024-01-15T01:22:30;94407.06;;;2.75;93.48
11268;BME280;72685;47.474;9.416;2024-01-15T01:24:55;94412.75;;;2.63;94.47
11268;BME280;72685;47.474;9.416;2024-01-15T01:27:20;94415.16;;;2.60;94.16
11268;BME280;72685;47.474;9.416;2024-01-15T01:29:46;94411.50;;;2.56;94.82
11268;BME280;72685;47.474;9.416;2024-01-15T01:32:11;94419.75;;;2.49;96.19
11268;BME280;72685;47.474;9.416;2024-01-15T01:34:40;94427.72;;;2.44;96.64
11268;BME280;72685;47.474;9.416;2024-01-15T01:37:07;94440.19;;;2.39;97.87
11268;BME280;72685;47.474;9.416;2024-01-15T01:39:32;94445.78;;;2.32;98.54
11268;BME280;72685;47.474;9.416;2024-01-15T01:41:58;94443.19;;;2.27;99.57
11268;BME280;72685;47.474;9.416;2024-01-15T01:44:23;94449.63;;;2.16;100.00
11268;BME280;72685;47.474;9.416;2024-01-15T01:46:48;94444.94;;;2.08;100.00
11268;BME280;72685;47.474;9.416;2024-01-15T01:49:14;94457.84;;;2.09;100.00
11268;BME280;72685;47.474;9.416;2024-01-15T01:51:39;94452.63;;;2.04;100.00
11268;BME280;72685;47.474;9.416;2024-01-15T01:54:05;94456.44;;;1.88;100.00
11268;BME280;72685;47.474;9.416;2024-01-15T01:56:33;94454.69;;;1.79;100.00
11268;BME280;72685;47.474;9.416;2024-01-15T01:58:59;94451.84;;;1.70;100.00
11268;BME280;72685;47.474;9.416;2024-01-15T02:01:25;94450.88;;;1.61;100.00
11268;BME280;72685;47.474;9.416;2024-01-15T02:03:51;94450.69;;;1.52;100.00
11268;BME280;72685;47.474;9.416;2024-01-15T02:06:18;94459.13;;;1.44;100.00
11268;BME280;72685;47.474;9.416;2024-01-15T02:08:43;94461.78;;;1.44;100.00
11268;BME280;72685;47.474;9.416;2024-01-15T02:11:09;94463.16;;;1.37;100.00
11268;BME280;72685;47.474;9.416;2024-01-15T02:13:34;94459.47;;;1.33;100.00
11268;BME280;72685;47.474;9.416;2024-01-15T02:16:00;94464.47;;;1.34;100.00
11268;BME280;72685;47.474;9.416;2024-01-15T02:18:25;94467.94;;;1.25;100.00
11268;BME280;72685;47.474;9.416;2024-01-15T02:20:50;94469.81;;;1.24;100.00
11268;BME280;72685;47.474;9.416;2024-01-15T02:23:16;94461.69;;;1.16;100.00
11268;BME280;72685;47.474;9.416;2024-01-15T02:25:43;94458.03;;;1.12;100.00
11268;BME280;72685;47.474;9.416;2024-01-15T02:28:11;94459.16;;;0.90;100.00
11268;BME280;72685;47.474;9.416;2024-01-15T02:30:38;94468.47;;;0.73;100.00
11268;BME280;72685;47.474;9.416;2024-01-15T02:33:04;94464.03;;;0.58;100.00
11268;BME280;72685;47.474;9.416;2024-01-15T02:35:30;94461.41;;;0.63;100.00
11268;BME280;72685;47.474;9.416;2024-01-15T02:37:55;94461.97;;;0.50;100.00
11268;BME280;72685;47.474;9.416;2024-01-15T02:40:21;94471.69;;;0.49;100.00
11268;BME280;72685;47.474;9.416;2024-01-15T02:42:46;94461.41;;;0.48;100.00
11268;BME280;72685;47.474;9.416;2024-01-15T02:45:11;94467.75;;;0.47;100.00
11268;BME280;72685;47.474;9.416;2024-01-15T02:47:37;94472.47;;;0.45;100.00
11268;BME280;72685;47.474;9.416;2024-01-15T02:50:02;94468.53;;;0.42;100.00
11268;BME280;72685;47.474;9.416;2024-01-15T02:52:27;94477.72;;;0.45;100.00
11268;BME280;72685;47.474;9.416;2024-01-15T02:54:53;94487.22;;;0.41;100.00
11268;BME280;72685;47.474;9.416;2024-01-15T02:57:18;94483.25;;;0.38;100.00
11268;BME280;72685;47.474;9.416;2024-01-15T02:59:44;94492.47;;;0.41;100.00
11268;BME280;72685;47.474;9.416;2024-01-15T03:02:09;94479.31;;;0.41;100.00
11268;BME280;72685;47.474;9.416;2024-01-15T03:04:34;94486.69;;;0.34;100.00
11268;BME280;72685;47.474;9.416;2024-01-15T03:07:00;94493.00;;;0.33;100.00
11268;BME280;72685;47.474;9.416;2024-01-15T03:09:25;94482.75;;;0.36;100.00
11268;BME280;72685;47.474;9.416;2024-01-15T03:11:50;94481.16;;;0.35;100.00
11268;BME280;72685;47.474;9.416;2024-01-15T03:14:16;94483.28;;;0.28;100.00
11268;BME280;72685;47.474;9.416;2024-01-15T03:16:41;94472.00;;;0.23;100.00
11268;BME280;72685;47.474;9.416;2024-01-15T03:19:07;94472.00;;;0.28;100.00
11268;BME280;72685;47.474;9.416;2024-01-15T03:21:32;94477.25;;;0.28;100.00
11268;BME280;72685;47.474;9.416;2024-01-15T03:23:57;94478.03;;;0.23;100.00
11268;BME280;72685;47.474;9.416;2024-01-15T03:26:23;94467.81;;;0.17;100.00
11268;BME280;72685;47.474;9.416;2024-01-15T03:28:48;94465.44;;;0.15;100.00
11268;BME280;72685;47.474;9.416;2024-01-15T03:31:13;94468.59;;;0.17;100.00
11268;BME280;72685;47.474;9.416;2024-01-15T03:33:39;94467.53;;;0.18;100.00
11268;BME280;72685;47.474;9.416;2024-01-15T03:36:05;94472.78;;;0.13;100.00
11268;BME280;72685;47.474;9.416;2024-01-15T03:38:30;94470.44;;;0.17;100.00
11268;BME280;72685;47.474;9.416;2024-01-15T03:40:55;94462.53;;;0.17;100.00
11268;BME280;72685;47.474;9.416;2024-01-15T03:43:21;94453.13;;;0.16;100.00
11268;BME280;72685;47.474;9.416;2024-01-15T03:45:46;94454.41;;;0.18;100.00
11268;BME280;72685;47.474;9.416;2024-01-15T03:48:12;94464.13;;;0.18;100.00
11268;BME280;72685;47.474;9.416;2024-01-15T03:50:37;94456.75;;;0.20;100.00
11268;BME280;72685;47.474;9.416;2024-01-15T03:53:02;94467.03;;;0.11;100.00
11268;BME280;72685;47.474;9.416;2024-01-15T03:55:28;94458.09;;;0.07;100.00
11268;BME280;72685;47.474;9.416;2024-01-15T03:57:53;94458.91;;;0.03;100.00
11268;BME280;72685;47.474;9.416;2024-01-15T04:00:19;94467.03;;;0.01;99.36
11268;BME280;72685;47.474;9.416;2024-01-15T04:02:44;94464.16;;;0.03;99.71
11268;BME280;72685;47.474;9.416;2024-01-15T04:05:10;94470.19;;;-0.02;99.63
11268;BME280;72685;47.474;9.416;2024-01-15T04:07:35;94457.31;;;0.02;99.31
11268;BME280;72685;47.474;9.416;2024-01-15T04:10:00;94460.22;;;-0.05;99.30
11268;BME280;72685;47.474;9.416;2024-01-15T04:12:26;94456.53;;;-0.09;97.90
11268;BME280;72685;47.474;9.416;2024-01-15T04:14:51;94453.91;;;-0.09;96.23
11268;BME280;72685;47.474;9.416;2024-01-15T04:17:16;94449.19;;;-0.12;95.75
11268;BME280;72685;47.474;9.416;2024-01-15T04:19:46;94456.81;;;-0.11;95.04
11268;BME280;72685;47.474;9.416;2024-01-15T04:22:13;94462.06;;;-0.16;94.63
11268;BME280;72685;47.474;9.416;2024-01-15T04:24:39;94458.91;;;-0.18;93.18
11268;BME280;72685;47.474;9.416;2024-01-15T04:27:05;94454.72;;;-0.19;93.58
11268;BME280;72685;47.474;9.416;2024-01-15T04:29:31;94459.44;;;-0.21;94.94
11268;BME280;72685;47.474;9.416;2024-01-15T04:31:56;94469.94;;;-0.21;93.96
11268;BME280;72685;47.474;9.416;2024-01-15T04:34:22;94460.75;;;-0.18;93.68
11268;BME280;72685;47.474;9.416;2024-01-15T04:36:47;94457.88;;;-0.17;92.38
11268;BME280;72685;47.474;9.416;2024-01-15T04:39:12;94460.50;;;-0.17;93.47
11268;BME280;72685;47.474;9.416;2024-01-15T04:41:38;94462.06;;;-0.16;90.86
11268;BME280;72685;47.474;9.416;2024-01-15T04:44:03;94466.53;;;-0.16;91.20
11268;BME280;72685;47.474;9.416;2024-01-15T04:46:28;94450.25;;;-0.13;91.19
11268;BME280;72685;47.474;9.416;2024-01-15T04:48:54;94464.69;;;-0.16;91.27
11268;BME280;72685;47.474;9.416;2024-01-15T04:51:19;94459.19;;;-0.14;88.43
11268;BME280;72685;47.474;9.416;2024-01-15T04:53:45;94461.28;;;-0.16;88.62
11268;BME280;72685;47.474;9.416;2024-01-15T04:56:10;94464.16;;;-0.13;87.70
11268;BME280;72685;47.474;9.416;2024-01-15T04:58:35;94454.72;;;-0.14;88.22
11268;BME280;72685;47.474;9.416;2024-01-15T05:01:01;94458.66;;;-0.11;87.46
11268;BME280;72685;47.474;9.416;2024-01-15T05:03:26;94466.78;;;-0.13;87.12
11268;BME280;72685;47.474;9.416;2024-01-15T05:05:52;94463.38;;;-0.13;86.58
11268;BME280;72685;47.474;9.416;2024-01-15T05:08:17;94469.94;;;-0.11;87.38
11268;BME280;72685;47.474;9.416;2024-01-15T05:10:42;94477.81;;;-0.16;87.14
11268;BME280;72685;47.474;9.416;2024-01-15T05:13:08;94468.63;;;-0.18;87.91
11268;BME280;72685;47.474;9.416;2024-01-15T05:15:33;94472.31;;;-0.14;87.10
11268;BME280;72685;47.474;9.416;2024-01-15T05:17:58;94470.72;;;-0.20;86.90
11268;BME280;72685;47.474;9.416;2024-01-15T05:20:24;94473.34;;;-0.20;86.91
11268;BME280;72685;47.474;9.416;2024-01-15T05:22:49;94463.66;;;-0.20;85.46
11268;BME280;72685;47.474;9.416;2024-01-15T05:25:14;94463.09;;;-0.22;86.01
11268;BME280;72685;47.474;9.416;2024-01-15T05:27:40;94467.31;;;-0.26;86.54
11268;BME280;72685;47.474;9.416;2024-01-15T05:30:05;94465.72;;;-0.22;86.17
11268;BME280;72685;47.474;9.416;2024-01-15T05:32:31;94472.06;;;-0.23;84.67
11268;BME280;72685;47.474;9.416;2024-01-15T05:34:57;94469.94;;;-0.21;84.79
11268;BME280;72685;47.474;9.416;2024-01-15T05:37:22;94472.31;;;-0.24;86.33
11268;BME280;72685;47.474;9.416;2024-01-15T05:39:47;94471.78;;;-0.16;86.48
11268;BME280;72685;47.474;9.416;2024-01-15T05:42:13;94479.91;;;-0.18;85.80
11268;BME280;72685;47.474;9.416;2024-01-15T05:44:38;94477.56;;;-0.19;86.11
11268;BME280;72685;47.474;9.416;2024-01-15T05:47:04;94469.44;;;-0.23;86.98
11268;BME280;72685;47.474;9.416;2024-01-15T05:49:29;94466.28;;;-0.20;85.70
11268;BME280;72685;47.474;9.416;2024-01-15T05:51:55;94470.47;;;-0.24;87.13
11268;BME280;72685;47.474;9.416;2024-01-15T05:54:20;94471.78;;;-0.26;88.09
11268;BME280;72685;47.474;9.416;2024-01-15T05:56:46;94480.97;;;-0.29;87.20
11268;BME280;72685;47.474;9.416;2024-01-15T05:59:11;94474.66;;;-0.33;88.36
11268;BME280;72685;47.474;9.416;2024-01-15T06:01:36;94466.53;;;-0.31;89.97
11268;BME280;72685;47.474;9.416;2024-01-15T06:04:02;94469.41;;;-0.33;90.01
11268;BME280;72685;47.474;9.416;2024-01-15T06:06:27;94468.88;;;-0.35;90.15
11268;BME280;72685;47.474;9.416;2024-01-15T06:08:53;94469.94;;;-0.31;89.46
11268;BME280;72685;47.474;9.416;2024-01-15T06:11:18;94468.09;;;-0.25;87.73
11268;BME280;72685;47.474;9.416;2024-01-15T06:13:43;94466.78;;;-0.28;89.46
11268;BME280;72685;47.474;9.416;2024-01-15T06:16:15;94466.53;;;-0.26;89.32
11268;BME280;72685;47.474;9.416;2024-01-15T06:18:45;94452.63;;;-0.27;90.21
11268;BME280;72685;47.474;9.416;2024-01-15T06:21:10;94461.81;;;-0.29;89.13
11268;BME280;72685;47.474;9.416;2024-01-15T06:23:38;94459.16;;;-0.34;89.75
11268;BME280;72685;47.474;9.416;2024-01-15T06:26:04;94461.00;;;-0.25;89.55
11268;BME280;72685;47.474;9.416;2024-01-15T06:28:29;94459.69;;;-0.27;88.68
11268;BME280;72685;47.474;9.416;2024-01-15T06:30:54;94465.47;;;-0.25;87.18
11268;BME280;72685;47.474;9.416;2024-01-15T06:33:20;94462.59;;;-0.24;88.95
11268;BME280;72685;47.474;9.416;2024-01-15T06:35:45;94462.09;;;-0.26;87.80
11268;BME280;72685;47.474;9.416;2024-01-15T06:38:10;94473.09;;;-0.24;88.20
11268;BME280;72685;47.474;9.416;2024-01-15T06:40:36;94459.97;;;-0.24;87.57
11268;BME280;72685;47.474;9.416;2024-01-15T06:43:01;94458.13;;;-0.28;89.93
11268;BME280;72685;47.474;9.416;2024-01-15T06:45:26;94455.25;;;-0.27;88.21
11268;BME280;72685;47.474;9.416;2024-01-15T06:47:52;94459.19;;;-0.24;87.46
11268;BME280;72685;47.474;9.416;2024-01-15T06:50:17;94438.47;;;-0.26;89.09
11268;BME280;72685;47.474;9.416;2024-01-15T06:52:42;94440.00;;;-0.25;88.66
11268;BME280;72685;47.474;9.416;2024-01-15T06:55:08;94445.28;;;-0.20;89.15
11268;BME280;72685;47.474;9.416;2024-01-15T06:57:33;94442.38;;;-0.23;88.48
11268;BME280;72685;47.474;9.416;2024-01-15T06:59:59;94441.59;;;-0.24;88.07
11268;BME280;72685;47.474;9.416;2024-01-15T07:02:24;94437.41;;;-0.20;88.90
11268;BME280;72685;47.474;9.416;2024-01-15T07:04:49;94441.84;;;-0.25;89.99
11268;BME280;72685;47.474;9.416;2024-01-15T07:07:15;94436.88;;;-0.22;89.12
11268;BME280;72685;47.474;9.416;2024-01-15T07:09:40;94428.72;;;-0.25;88.78
11268;BME280;72685;47.474;9.416;2024-01-15T07:12:06;94442.38;;;-0.28;88.55
11268;BME280;72685;47.474;9.416;2024-01-15T07:14:31;94452.09;;;-0.24;89.30
11268;BME280;72685;47.474;9.416;2024-01-15T07:16:56;94454.97;;;-0.30;87.83
11268;BME280;72685;47.474;9.416;2024-01-15T07:19:22;94446.56;;;-0.22;89.78
11268;BME280;72685;47.474;9.416;2024-01-15T07:21:47;94448.44;;;-0.23;89.43
11268;BME280;72685;47.474;9.416;2024-01-15T07:24:13;94451.56;;;-0.21;89.55
11268;BME280;72685;47.474;9.416;2024-01-15T07:26:38;94446.31;;;-0.16;89.47
11268;BME280;72685;47.474;9.416;2024-01-15T07:29:04;94448.44;;;-0.23;89.50
11268;BME280;72685;47.474;9.416;2024-01-15T07:31:29;94450.53;;;-0.20;88.45
11268;BME280;72685;47.474;9.416;2024-01-15T07:33:54;94448.94;;;-0.21;88.24
11268;BME280;72685;47.474;9.416;2024-01-15T07:36:20;94444.72;;;-0.22;88.20
11268;BME280;72685;47.474;9.416;2024-01-15T07:38:45;94456.03;;;-0.16;87.98
11268;BME280;72685;47.474;9.416;2024-01-15T07:41:13;94455.25;;;-0.17;88.70
11268;BME280;72685;47.474;9.416;2024-01-15T07:43:38;94447.63;;;-0.18;88.83
11268;BME280;72685;47.474;9.416;2024-01-15T07:46:04;94457.34;;;-0.19;88.91
11268;BME280;72685;47.474;9.416;2024-01-15T07:48:29;94458.91;;;-0.18;87.38
11268;BME280;72685;47.474;9.416;2024-01-15T07:50:54;94455.25;;;-0.17;86.55
11268;BME280;72685;47.474;9.416;2024-01-15T07:53:20;94460.50;;;-0.17;87.46
11268;BME280;72685;47.474;9.416;2024-01-15T07:55:45;94456.03;;;-0.16;87.92
11268;BME280;72685;47.474;9.416;2024-01-15T07:58:11;94451.56;;;-0.16;85.93
11268;BME280;72685;47.474;9.416;2024-01-15T08:00:37;94452.09;;;-0.14;86.37
11268;BME280;72685;47.474;9.416;2024-01-15T08:03:02;94452.34;;;-0.15;86.86
11268;BME280;72685;47.474;9.416;2024-01-15T08:05:28;94443.97;;;-0.17;85.56
11268;BME280;72685;47.474;9.416;2024-01-15T08:07:53;94447.38;;;-0.17;86.19
11268;BME280;72685;47.474;9.416;2024-01-15T08:10:18;94443.69;;;-0.21;86.57
11268;BME280;72685;47.474;9.416;2024-01-15T08:12:44;94449.22;;;-0.17;86.13
11268;BME280;72685;47.474;9.416;2024-01-15T08:15:10;94448.94;;;-0.16;87.39
11268;BME280;72685;47.474;9.416;2024-01-15T08:17:35;94451.31;;;-0.14;85.39
11268;BME280;72685;47.474;9.416;2024-01-15T08:20:00;94452.63;;;-0.17;87.49
11268;BME280;72685;47.474;9.416;2024-01-15T08:22:26;94448.94;;;-0.16;88.10
11268;BME280;72685;47.474;9.416;2024-01-15T08:24:52;94464.16;;;-0.18;86.53
11268;BME280;72685;47.474;9.416;2024-01-15T08:27:17;94457.06;;;-0.22;88.34
11268;BME280;72685;47.474;9.416;2024-01-15T08:29:43;94462.59;;;-0.19;88.88
11268;BME280;72685;47.474;9.416;2024-01-15T08:32:08;94465.75;;;-0.17;90.79
11268;BME280;72685;47.474;9.416;2024-01-15T08:34:39;94463.13;;;-0.17;89.42
11268;BME280;72685;47.474;9.416;2024-01-15T08:37:04;94458.66;;;-0.21;89.95
11268;BME280;72685;47.474;9.416;2024-01-15T08:39:30;94460.75;;;-0.18;91.69
11268;BME280;72685;47.474;9.416;2024-01-15T08:41:55;94456.28;;;-0.18;91.20
11268;BME280;72685;47.474;9.416;2024-01-15T08:44:20;94462.31;;;-0.22;91.56
11268;BME280;72685;47.474;9.416;2024-01-15T08:46:46;94456.03;;;-0.26;92.49
11268;BME280;72685;47.474;9.416;2024-01-15T08:49:11;94462.31;;;-0.27;91.80
11268;BME280;72685;47.474;9.416;2024-01-15T08:51:36;94471.78;;;-0.26;92.35
11268;BME280;72685;47.474;9.416;2024-01-15T08:54:03;94463.91;;;-0.36;93.77
11268;BME280;72685;47.474;9.416;2024-01-15T08:56:28;94468.13;;;-0.35;93.44
11268;BME280;72685;47.474;9.416;2024-01-15T08:58:53;94471.53;;;-0.30;92.63
11268;BME280;72685;47.474;9.416;2024-01-15T09:01:19;94467.84;;;-0.39;93.61
11268;BME280;72685;47.474;9.416;2024-01-15T09:03:44;94469.94;;;-0.31;92.88
11268;BME280;72685;47.474;9.416;2024-01-15T09:06:10;94467.84;;;-0.29;92.89
11268;BME280;72685;47.474;9.416;2024-01-15T09:08:35;94468.91;;;-0.30;93.68
11268;BME280;72685;47.474;9.416;2024-01-15T09:11:01;94471.53;;;-0.30;93.66
11268;BME280;72685;47.474;9.416;2024-01-15T09:13:28;94467.56;;;-0.27;91.68
11268;BME280;72685;47.474;9.416;2024-01-15T09:15:53;94469.16;;;-0.26;92.54
11268;BME280;72685;47.474;9.416;2024-01-15T09:18:19;94477.56;;;-0.29;92.63
11268;BME280;72685;47.474;9.416;2024-01-15T09:20:44;94475.97;;;-0.25;93.97
11268;BME280;72685;47.474;9.416;2024-01-15T09:23:09;94478.88;;;-0.27;93.01
11268;BME280;72685;47.474;9.416;2024-01-15T09:25:35;94482.28;;;-0.26;93.94
11268;BME280;72685;47.474;9.416;2024-01-15T09:28:00;94476.22;;;-0.22;91.75
11268;BME280;72685;47.474;9.416;2024-01-15T09:30:25;94484.38;;;-0.23;92.74
11268;BME280;72685;47.474;9.416;2024-01-15T09:32:51;94483.84;;;-0.25;94.25
11268;BME280;72685;47.474;9.416;2024-01-15T09:35:16;94489.88;;;-0.30;93.28
11268;BME280;72685;47.474;9.416;2024-01-15T09:37:41;94492.50;;;-0.25;92.32
11268;BME280;72685;47.474;9.416;2024-01-15T09:40:12;94495.66;;;-0.28;93.79
11268;BME280;72685;47.474;9.416;2024-01-15T09:42:39;94499.84;;;-0.22;91.84
11268;BME280;72685;47.474;9.416;2024-01-15T09:45:06;94491.72;;;-0.25;92.76
11268;BME280;72685;47.474;9.416;2024-01-15T09:47:31;94499.88;;;-0.27;90.18
11268;BME280;72685;47.474;9.416;2024-01-15T09:49:56;94484.91;;;-0.21;91.25
11268;BME280;72685;47.474;9.416;2024-01-15T09:52:24;94484.38;;;-0.18;91.54
11268;BME280;72685;47.474;9.416;2024-01-15T09:54:50;94476.78;;;-0.20;89.50
11268;BME280;72685;47.474;9.416;2024-01-15T09:57:16;94467.81;;;-0.19;89.64
11268;BME280;72685;47.474;9.416;2024-01-15T09:59:42;94467.31;;;-0.21;89.44
11268;BME280;72685;47.474;9.416;2024-01-15T10:02:09;94462.31;;;-0.22;90.32
11268;BME280;72685;47.474;9.416;2024-01-15T10:04:39;94453.94;;;-0.19;88.09
11268;BME280;72685;47.474;9.416;2024-01-15T10:07:06;94455.50;;;-0.23;87.58
11268;BME280;72685;47.474;9.416;2024-01-15T10:09:33;94450.78;;;-0.16;87.80
11268;BME280;72685;47.474;9.416;2024-01-15T10:11:59;94456.28;;;-0.13;85.55
11268;BME280;72685;47.474;9.416;2024-01-15T10:14:24;94444.72;;;-0.12;86.29
11268;BME280;72685;47.474;9.416;2024-01-15T10:16:49;94442.63;;;-0.05;86.66
11268;BME280;72685;47.474;9.416;2024-01-15T10:19:15;94438.16;;;-0.09;85.92
11268;BME280;72685;47.474;9.416;2024-01-15T10:21:40;94436.88;;;-0.07;84.75
11268;BME280;72685;47.474;9.416;2024-01-15T10:24:06;94440.03;;;-0.10;84.86
11268;BME280;72685;47.474;9.416;2024-01-15T10:26:32;94438.69;;;-0.07;84.56
11268;BME280;72685;47.474;9.416;2024-01-15T10:29:00;94428.72;;;0.00;84.57
11268;BME280;72685;47.474;9.416;2024-01-15T10:31:26;94424.25;;;0.06;83.75
11268;BME280;72685;47.474;9.416;2024-01-15T10:33:52;94415.06;;;-0.02;82.61
11268;BME280;72685;47.474;9.416;2024-01-15T10:36:18;94409.81;;;-0.02;81.24
11268;BME280;72685;47.474;9.416;2024-01-15T10:38:44;94410.03;;;0.07;82.36
11268;BME280;72685;47.474;9.416;2024-01-15T10:41:10;94410.56;;;0.04;84.10
11268;BME280;72685;47.474;9.416;2024-01-15T10:43:35;94412.94;;;0.10;80.94
11268;BME280;72685;47.474;9.416;2024-01-15T10:46:01;94411.91;;;0.06;80.54
11268;BME280;72685;47.474;9.416;2024-01-15T10:48:27;94404.78;;;0.17;81.64
11268;BME280;72685;47.474;9.416;2024-01-15T10:50:54;94402.44;;;0.15;80.42
11268;BME280;72685;47.474;9.416;2024-01-15T10:53:20;94394.28;;;0.22;78.88
11268;BME280;72685;47.474;9.416;2024-01-15T10:55:46;94390.56;;;0.23;79.90
11268;BME280;72685;47.474;9.416;2024-01-15T10:58:14;94396.41;;;0.05;78.42
11268;BME280;72685;47.474;9.416;2024-01-15T11:00:40;94385.84;;;0.20;79.91
11268;BME280;72685;47.474;9.416;2024-01-15T11:03:06;94390.56;;;0.23;78.56
11268;BME280;72685;47.474;9.416;2024-01-15T11:05:38;94393.72;;;0.25;77.24
11268;BME280;72685;47.474;9.416;2024-01-15T11:08:07;94388.19;;;0.31;77.70
11268;BME280;72685;47.474;9.416;2024-01-15T11:10:44;94388.44;;;0.30;78.23
11268;BME280;72685;47.474;9.416;2024-01-15T11:15:55;94393.69;;;0.30;77.93
11268;BME280;72685;47.474;9.416;2024-01-15T11:18:22;94396.56;;;0.38;76.81
11268;BME280;72685;47.474;9.416;2024-01-15T11:21:20;94385.81;;;0.30;77.32
11268;BME280;72685;47.474;9.416;2024-01-15T11:23:46;94389.00;;;0.32;77.28
11268;BME280;72685;47.474;9.416;2024-01-15T11:26:38;94395.03;;;0.27;76.52
11268;BME280;72685;47.474;9.416;2024-01-15T11:34:20;94379.25;;;0.32;75.31
11268;BME280;72685;47.474;9.416;2024-01-15T11:41:55;94370.06;;;0.35;75.78
11268;BME280;72685;47.474;9.416;2024-01-15T11:44:21;94377.97;;;0.25;75.40
11268;BME280;72685;47.474;9.416;2024-01-15T11:46:57;94375.56;;;0.33;76.70
11268;BME280;72685;47.474;9.416;2024-01-15T11:52:19;94367.97;;;0.32;76.56
11268;BME280;72685;47.474;9.416;2024-01-15T11:54:55;94357.72;;;0.30;74.86
11268;BME280;72685;47.474;9.416;2024-01-15T11:57:37;94342.22;;;0.34;76.43
11268;BME280;72685;47.474;9.416;2024-01-15T12:00:05;94341.16;;;0.30;75.78
11268;BME280;72685;47.474;9.416;2024-01-15T12:02:31;94322.50;;;0.36;75.93
11268;BME280;72685;47.474;9.416;2024-01-15T12:04:56;94326.41;;;0.39;75.34
11268;BME280;72685;47.474;9.416;2024-01-15T12:07:22;94318.53;;;0.44;73.99
11268;BME280;72685;47.474;9.416;2024-01-15T12:09:47;94310.59;;;0.49;75.81
11268;BME280;72685;47.474;9.416;2024-01-15T12:12:18;94312.19;;;0.50;75.01
11268;BME280;72685;47.474;9.416;2024-01-15T12:14:46;94305.34;;;0.54;74.30
11268;BME280;72685;47.474;9.416;2024-01-15T12:17:12;94306.56;;;0.67;74.10
11268;BME280;72685;47.474;9.416;2024-01-15T12:19:37;94304.44;;;0.69;72.18
11268;BME280;72685;47.474;9.416;2024-01-15T12:22:03;94296.31;;;0.70;72.93
11268;BME280;72685;47.474;9.416;2024-01-15T12:24:28;94304.50;;;0.64;72.63
11268;BME280;72685;47.474;9.416;2024-01-15T12:26:54;94317.84;;;0.67;73.85
11268;BME280;72685;47.474;9.416;2024-01-15T12:29:19;94306.56;;;0.67;74.25
11268;BME280;72685;47.474;9.416;2024-01-15T12:31:49;94316.53;;;0.70;74.28
11268;BME280;72685;47.474;9.416;2024-01-15T12:34:14;94335.44;;;0.72;74.41
11268;BME280;72685;47.474;9.416;2024-01-15T12:36:40;94329.69;;;0.70;73.72
11268;BME280;72685;47.474;9.416;2024-01-15T12:39:06;94332.63;;;0.63;75.20
11268;BME280;72685;47.474;9.416;2024-01-15T12:41:36;94332.56;;;0.68;74.25
11268;BME280;72685;47.474;9.416;2024-01-15T12:44:01;94323.63;;;0.69;73.94
11268;BME280;72685;47.474;9.416;2024-01-15T12:46:27;94316.25;;;0.71;74.37
11268;BME280;72685;47.474;9.416;2024-01-15T12:48:52;94318.63;;;0.73;74.97
11268;BME280;72685;47.474;9.416;2024-01-15T12:51:17;94323.34;;;0.71;74.45
11268;BME280;72685;47.474;9.416;2024-01-15T12:53:43;94318.88;;;0.76;74.07
11268;BME280;72685;47.474;9.416;2024-01-15T12:56:08;94317.00;;;0.77;74.99
11268;BME280;72685;47.474;9.416;2024-01-15T12:58:33;94304.19;;;0.70;74.75
11268;BME280;72685;47.474;9.416;2024-01-15T13:00:59;94299.41;;;0.77;74.69
11268;BME280;72685;47.474;9.416;2024-01-15T13:03:25;94298.88;;;0.75;73.57
11268;BME280;72685;47.474;9.416;2024-01-15T13:05:50;94299.63;;;0.81;74.60
11268;BME280;72685;47.474;9.416;2024-01-15T13:08:17;94304.16;;;0.75;74.65
11268;BME280;72685;47.474;9.416;2024-01-15T13:10:43;94299.63;;;0.81;74.97
11268;BME280;72685;47.474;9.416;2024-01-15T13:13:08;94304.09;;;0.85;73.66